createdAt,value
2018-09-16T00:00:13.516Z,11.81
2018-09-16T00:01:13.527Z,11.77
2018-09-16T00:02:13.511Z,11.78
2018-09-16T00:03:13.508Z,11.70
2018-09-16T00:04:13.714Z,11.69
2018-09-16T00:05:13.510Z,11.69
2018-09-16T00:06:13.502Z,11.60
2018-09-16T00:07:13.506Z,11.52
2018-09-16T00:08:13.499Z,11.59
2018-09-16T00:09:13.498Z,11.55
2018-09-16T00:10:13.496Z,11.55
2018-09-16T00:11:13.493Z,11.45
2018-09-16T00:12:13.495Z,11.54
2018-09-16T00:13:13.492Z,11.48
2018-09-16T00:14:13.519Z,11.43
2018-09-16T00:15:13.517Z,11.43
2018-09-16T00:16:13.489Z,11.32
2018-09-16T00:17:13.494Z,11.19
2018-09-16T00:18:13.498Z,11.12
2018-09-16T00:19:13.692Z,11.04
2018-09-16T00:20:13.489Z,10.93
2018-09-16T00:21:13.690Z,10.93
2018-09-16T00:22:13.489Z,10.94
2018-09-16T00:23:13.685Z,10.93
2018-09-16T00:24:13.485Z,10.84
2018-09-16T00:25:13.488Z,10.97
2018-09-16T00:26:13.493Z,10.89
2018-09-16T00:27:13.684Z,10.87
2018-09-16T00:28:13.486Z,10.86
2018-09-16T00:29:13.479Z,10.93
2018-09-16T00:30:13.492Z,10.97
2018-09-16T00:31:13.479Z,10.87
2018-09-16T00:32:13.694Z,10.84
2018-09-16T00:33:13.490Z,10.90
2018-09-16T00:34:13.489Z,10.87
2018-09-16T00:35:13.487Z,10.94
2018-09-16T00:36:13.491Z,10.87
2018-09-16T00:37:13.492Z,11.00
2018-09-16T00:38:13.472Z,10.90
2018-09-16T00:39:13.676Z,10.94
2018-09-16T00:40:13.685Z,10.97
2018-09-16T00:41:13.480Z,10.93
2018-09-16T00:42:13.475Z,10.94
2018-09-16T00:43:13.467Z,10.94
2018-09-16T00:44:13.469Z,10.84
2018-09-16T00:45:13.479Z,10.93
2018-09-16T00:46:13.474Z,10.89
2018-09-16T00:47:13.672Z,10.93
2018-09-16T00:48:13.466Z,10.87
2018-09-16T00:49:13.663Z,10.78
2018-09-16T00:50:13.672Z,10.76
2018-09-16T00:51:13.477Z,10.68
2018-09-16T00:52:13.474Z,10.68
2018-09-16T00:53:13.459Z,10.64
2018-09-16T00:54:13.457Z,10.64
2018-09-16T00:55:13.466Z,10.60
2018-09-16T00:56:13.454Z,10.60
2018-09-16T00:57:13.454Z,10.57
2018-09-16T00:58:13.451Z,10.59
2018-09-16T00:59:13.471Z,10.56
2018-09-16T01:00:13.466Z,10.53
2018-09-16T01:01:13.456Z,10.53
2018-09-16T01:02:13.649Z,10.53
2018-09-16T01:03:13.461Z,10.48
2018-09-16T01:04:13.456Z,10.59
2018-09-16T01:05:13.446Z,10.51
2018-09-16T01:06:13.444Z,10.61
2018-09-16T01:07:13.446Z,10.49
2018-09-16T01:08:13.453Z,10.44
2018-09-16T01:09:13.448Z,10.44
2018-09-16T01:10:13.448Z,10.37
2018-09-16T01:11:13.437Z,10.30
2018-09-16T01:12:13.438Z,10.31
2018-09-16T01:13:13.642Z,10.25
2018-09-16T01:14:13.437Z,10.23
2018-09-16T01:15:13.433Z,10.23
2018-09-16T01:16:13.434Z,10.25
2018-09-16T01:17:13.648Z,10.25
2018-09-16T01:18:13.648Z,10.26
2018-09-16T01:19:13.429Z,10.28
2018-09-16T01:20:13.433Z,10.28
2018-09-16T01:21:13.452Z,10.30
2018-09-16T01:22:13.441Z,10.28
2018-09-16T01:23:13.454Z,10.23
2018-09-16T01:24:13.434Z,10.26
2018-09-16T01:25:13.629Z,10.23
2018-09-16T01:26:13.436Z,10.26
2018-09-16T01:27:13.423Z,10.28
2018-09-16T01:28:13.418Z,10.31
2018-09-16T01:29:13.432Z,10.34
2018-09-16T01:30:13.620Z,10.23
2018-09-16T01:31:13.416Z,10.28
2018-09-16T01:32:13.436Z,10.20
2018-09-16T01:33:13.411Z,10.23
2018-09-16T01:34:13.426Z,10.25
2018-09-16T01:35:13.411Z,10.25
2018-09-16T01:36:13.423Z,10.12
2018-09-16T01:37:13.424Z,10.13
2018-09-16T01:38:13.409Z,10.09
2018-09-16T01:39:13.416Z,10.13
2018-09-16T01:40:13.620Z,10.10
2018-09-16T01:41:13.407Z,10.13
2018-09-16T01:42:13.404Z,10.13
2018-09-16T01:43:13.402Z,10.05
2018-09-16T01:44:13.413Z,10.09
2018-09-16T01:45:13.426Z,10.13
2018-09-16T01:46:13.408Z,10.15
2018-09-16T01:47:13.416Z,10.09
2018-09-16T01:48:13.421Z,10.05
2018-09-16T01:49:13.411Z,10.07
2018-09-16T01:50:13.606Z,10.13
2018-09-16T01:51:13.404Z,10.10
2018-09-16T01:52:13.392Z,9.99
2018-09-16T01:53:13.390Z,9.97
2018-09-16T01:54:13.386Z,9.94
2018-09-16T01:55:13.404Z,9.95
2018-09-16T01:56:13.402Z,10.01
2018-09-16T01:57:13.614Z,9.92
2018-09-16T01:58:13.386Z,9.97
2018-09-16T01:59:13.398Z,9.92
2018-09-16T02:00:13.404Z,9.98
2018-09-16T02:01:13.581Z,9.94
2018-09-16T02:02:13.384Z,9.92
2018-09-16T02:03:13.588Z,9.97
2018-09-16T02:04:13.442Z,10.01
2018-09-16T02:05:13.402Z,10.01
2018-09-16T02:06:13.371Z,10.12
2018-09-16T02:07:13.371Z,9.97
2018-09-16T02:08:13.395Z,10.02
2018-09-16T02:09:13.378Z,10.02
2018-09-16T02:10:13.366Z,9.97
2018-09-16T02:11:13.376Z,9.97
2018-09-16T02:12:13.362Z,9.97
2018-09-16T02:13:13.379Z,9.99
2018-09-16T02:14:13.363Z,10.04
2018-09-16T02:15:13.359Z,10.01
2018-09-16T02:16:13.361Z,9.98
2018-09-16T02:17:13.358Z,9.94
2018-09-16T02:18:13.355Z,9.95
2018-09-16T02:19:13.363Z,9.95
2018-09-16T02:20:13.364Z,9.98
2018-09-16T02:21:13.351Z,9.98
2018-09-16T02:22:13.350Z,10.04
2018-09-16T02:23:13.361Z,9.99
2018-09-16T02:24:13.347Z,10.02
2018-09-16T02:25:13.566Z,10.13
2018-09-16T02:26:13.571Z,10.04
2018-09-16T02:27:13.357Z,10.04
2018-09-16T02:28:13.341Z,10.07
2018-09-16T02:29:13.340Z,10.10
2018-09-16T02:30:13.541Z,10.02
2018-09-16T02:31:13.546Z,9.97
2018-09-16T02:32:13.337Z,9.99
2018-09-16T02:33:13.344Z,9.95
2018-09-16T02:34:13.345Z,9.94
2018-09-16T02:35:13.342Z,9.92
2018-09-16T02:36:13.333Z,9.86
2018-09-16T02:37:13.347Z,9.89
2018-09-16T02:38:13.530Z,9.86
2018-09-16T02:39:13.336Z,9.94
2018-09-16T02:40:13.323Z,9.94
2018-09-16T02:41:13.324Z,9.92
2018-09-16T02:42:13.332Z,9.86
2018-09-16T02:43:13.367Z,9.84
2018-09-16T02:44:13.525Z,9.87
2018-09-16T02:45:13.525Z,9.91
2018-09-16T02:46:13.539Z,9.92
2018-09-16T02:47:13.518Z,9.97
2018-09-16T02:48:13.313Z,9.92
2018-09-16T02:49:13.323Z,9.87
2018-09-16T02:50:13.337Z,9.86
2018-09-16T02:51:13.308Z,9.87
2018-09-16T02:52:13.310Z,9.86
2018-09-16T02:53:13.524Z,9.79
2018-09-16T02:54:13.318Z,9.84
2018-09-16T02:55:13.331Z,9.89
2018-09-16T02:56:13.304Z,9.84
2018-09-16T02:57:13.327Z,9.91
2018-09-16T02:58:13.305Z,9.87
2018-09-16T02:59:13.307Z,9.86
2018-09-16T03:00:13.504Z,9.83
2018-09-16T03:01:13.320Z,9.77
2018-09-16T03:02:13.297Z,9.76
2018-09-16T03:03:13.295Z,9.68
2018-09-16T03:04:13.315Z,9.69
2018-09-16T03:05:13.290Z,9.59
2018-09-16T03:06:13.301Z,9.61
2018-09-16T03:07:13.301Z,9.62
2018-09-16T03:08:13.502Z,9.64
2018-09-16T03:09:13.508Z,9.59
2018-09-16T03:10:13.280Z,9.64
2018-09-16T03:11:13.484Z,9.55
2018-09-16T03:12:13.291Z,9.59
2018-09-16T03:13:13.289Z,9.59
2018-09-16T03:14:13.476Z,9.51
2018-09-16T03:15:13.479Z,9.47
2018-09-16T03:16:13.495Z,9.48
2018-09-16T03:17:13.490Z,9.43
2018-09-16T03:18:13.283Z,9.46
2018-09-16T03:19:13.293Z,9.47
2018-09-16T03:20:13.266Z,9.50
2018-09-16T03:21:13.280Z,9.47
2018-09-16T03:22:13.274Z,9.48
2018-09-16T03:23:13.264Z,9.40
2018-09-16T03:24:13.277Z,9.37
2018-09-16T03:25:13.463Z,9.29
2018-09-16T03:26:13.477Z,9.39
2018-09-16T03:27:13.259Z,9.34
2018-09-16T03:28:13.255Z,9.29
2018-09-16T03:29:13.461Z,9.32
2018-09-16T03:30:13.265Z,9.36
2018-09-16T03:31:13.260Z,9.34
2018-09-16T03:32:13.454Z,9.34
2018-09-16T03:33:13.463Z,9.36
2018-09-16T03:34:13.257Z,9.29
2018-09-16T03:35:13.244Z,9.31
2018-09-16T03:36:13.242Z,9.44
2018-09-16T03:37:13.242Z,9.39
2018-09-16T03:38:13.441Z,9.31
2018-09-16T03:39:13.456Z,9.31
2018-09-16T03:40:13.241Z,9.34
2018-09-16T03:41:13.235Z,9.32
2018-09-16T03:42:13.442Z,9.41
2018-09-16T03:43:13.234Z,9.36
2018-09-16T03:44:13.434Z,9.25
2018-09-16T03:45:13.231Z,9.19
2018-09-16T03:46:13.428Z,9.21
2018-09-16T03:47:13.225Z,9.14
2018-09-16T03:48:13.227Z,9.19
2018-09-16T03:49:13.226Z,9.14
2018-09-16T03:50:13.219Z,9.25
2018-09-16T03:51:13.224Z,9.25
2018-09-16T03:52:13.218Z,9.26
2018-09-16T03:53:13.227Z,9.29
2018-09-16T03:54:13.211Z,9.40
2018-09-16T03:55:13.416Z,9.28
2018-09-16T03:56:13.412Z,9.36
2018-09-16T03:57:13.409Z,9.34
2018-09-16T03:58:13.213Z,9.34
2018-09-16T03:59:13.218Z,9.28
2018-09-16T04:00:13.205Z,9.32
2018-09-16T04:01:13.202Z,9.28
2018-09-16T04:02:13.402Z,9.14
2018-09-16T04:03:13.269Z,9.18
2018-09-16T04:04:13.196Z,9.14
2018-09-16T04:05:13.397Z,9.13
2018-09-16T04:06:13.404Z,9.04
2018-09-16T04:07:13.205Z,9.11
2018-09-16T04:08:13.197Z,9.06
2018-09-16T04:09:13.193Z,9.11
2018-09-16T04:10:13.191Z,9.06
2018-09-16T04:11:13.205Z,9.14
2018-09-16T04:12:13.398Z,9.10
2018-09-16T04:13:13.197Z,9.14
2018-09-16T04:14:13.178Z,9.10
2018-09-16T04:15:13.189Z,9.13
2018-09-16T04:16:13.191Z,9.14
2018-09-16T04:17:13.189Z,9.14
2018-09-16T04:18:13.176Z,9.14
2018-09-16T04:19:13.175Z,9.10
2018-09-16T04:20:13.173Z,9.11
2018-09-16T04:21:13.253Z,9.16
2018-09-16T04:22:13.369Z,9.11
2018-09-16T04:23:13.169Z,9.10
2018-09-16T04:24:13.179Z,9.08
2018-09-16T04:25:13.160Z,8.94
2018-09-16T04:26:13.161Z,9.04
2018-09-16T04:27:13.166Z,9.11
2018-09-16T04:28:13.182Z,9.03
2018-09-16T04:29:13.159Z,9.13
2018-09-16T04:30:13.150Z,9.16
2018-09-16T04:31:13.172Z,9.13
2018-09-16T04:32:13.159Z,9.18
2018-09-16T04:33:13.162Z,9.19
2018-09-16T04:34:13.175Z,9.14
2018-09-16T04:35:13.147Z,9.16
2018-09-16T04:36:13.143Z,9.10
2018-09-16T04:37:13.155Z,8.94
2018-09-16T04:38:13.137Z,8.92
2018-09-16T04:39:13.148Z,8.92
2018-09-16T04:40:13.141Z,8.94
2018-09-16T04:41:13.338Z,8.89
2018-09-16T04:42:13.132Z,8.94
2018-09-16T04:43:13.139Z,8.81
2018-09-16T04:44:13.126Z,8.85
2018-09-16T04:45:13.125Z,8.87
2018-09-16T04:46:13.136Z,8.82
2018-09-16T04:47:13.127Z,8.88
2018-09-16T04:48:13.120Z,8.85
2018-09-16T04:49:13.119Z,8.97
2018-09-16T04:50:13.116Z,8.97
2018-09-16T04:51:13.126Z,8.91
2018-09-16T04:52:13.113Z,8.94
2018-09-16T04:53:13.324Z,8.91
2018-09-16T04:54:13.111Z,9.00
2018-09-16T04:55:13.310Z,8.94
2018-09-16T04:56:13.310Z,8.89
2018-09-16T04:57:13.102Z,8.88
2018-09-16T04:58:13.118Z,8.91
2018-09-16T04:59:13.113Z,8.85
2018-09-16T05:00:13.319Z,8.87
2018-09-16T05:01:13.186Z,8.89
2018-09-16T05:02:13.096Z,8.76
2018-09-16T05:03:13.095Z,8.67
2018-09-16T05:04:13.104Z,8.71
2018-09-16T05:05:13.291Z,8.63
2018-09-16T05:06:13.099Z,8.58
2018-09-16T05:07:13.293Z,8.58
2018-09-16T05:08:13.083Z,8.55
2018-09-16T05:09:13.096Z,8.56
2018-09-16T05:10:13.092Z,8.56
2018-09-16T05:11:13.096Z,8.52
2018-09-16T05:12:13.107Z,8.58
2018-09-16T05:13:13.075Z,8.66
2018-09-16T05:14:13.072Z,8.63
2018-09-16T05:15:13.082Z,8.73
2018-09-16T05:16:13.072Z,8.73
2018-09-16T05:17:13.066Z,8.79
2018-09-16T05:18:13.078Z,8.73
2018-09-16T05:19:13.063Z,8.73
2018-09-16T05:20:13.063Z,8.78
2018-09-16T05:21:13.264Z,8.70
2018-09-16T05:22:13.058Z,8.73
2018-09-16T05:23:13.257Z,8.71
2018-09-16T05:24:13.053Z,8.81
2018-09-16T05:25:13.254Z,8.84
2018-09-16T05:26:13.060Z,8.76
2018-09-16T05:27:13.051Z,8.81
2018-09-16T05:28:13.046Z,8.88
2018-09-16T05:29:13.043Z,8.87
2018-09-16T05:30:13.246Z,8.87
2018-09-16T05:31:13.125Z,8.76
2018-09-16T05:32:13.041Z,8.81
2018-09-16T05:33:13.245Z,8.78
2018-09-16T05:34:13.042Z,8.70
2018-09-16T05:35:13.032Z,8.71
2018-09-16T05:36:13.032Z,8.64
2018-09-16T05:37:13.043Z,8.66
2018-09-16T05:38:13.028Z,8.71
2018-09-16T05:39:13.027Z,8.64
2018-09-16T05:40:13.039Z,8.73
2018-09-16T05:41:13.036Z,8.74
2018-09-16T05:42:13.020Z,8.78
2018-09-16T05:43:13.094Z,8.85
2018-09-16T05:44:13.042Z,8.94
2018-09-16T05:45:13.014Z,8.87
2018-09-16T05:46:13.029Z,8.85
2018-09-16T05:47:13.014Z,8.89
2018-09-16T05:48:13.007Z,8.92
2018-09-16T05:49:13.022Z,9.03
2018-09-16T05:50:13.017Z,9.08
2018-09-16T05:51:13.001Z,9.08
2018-09-16T05:52:13.009Z,9.18
2018-09-16T05:53:13.085Z,9.14
2018-09-16T05:54:13.000Z,9.19
2018-09-16T05:55:13.211Z,9.18
2018-09-16T05:56:12.992Z,9.25
2018-09-16T05:57:12.993Z,9.29
2018-09-16T05:58:13.205Z,9.36
2018-09-16T05:59:13.051Z,9.36
2018-09-16T06:00:12.988Z,9.46
2018-09-16T06:01:12.982Z,9.43
2018-09-16T06:02:12.991Z,9.58
2018-09-16T06:03:12.983Z,9.55
2018-09-16T06:04:12.989Z,9.74
2018-09-16T06:05:13.036Z,9.73
2018-09-16T06:06:12.977Z,9.74
2018-09-16T06:07:12.989Z,9.80
2018-09-16T06:08:12.969Z,9.84
2018-09-16T06:09:12.972Z,9.97
2018-09-16T06:10:13.172Z,9.98
2018-09-16T06:11:12.963Z,10.01
2018-09-16T06:12:13.166Z,9.98
2018-09-16T06:13:13.167Z,10.07
2018-09-16T06:14:12.973Z,10.15
2018-09-16T06:15:12.968Z,10.07
2018-09-16T06:16:12.979Z,10.20
2018-09-16T06:17:12.958Z,10.25
2018-09-16T06:18:12.968Z,10.31
2018-09-16T06:19:12.966Z,10.26
2018-09-16T06:20:12.968Z,10.33
2018-09-16T06:21:12.963Z,10.31
2018-09-16T06:22:12.948Z,10.38
2018-09-16T06:23:13.162Z,10.38
2018-09-16T06:24:12.952Z,10.41
2018-09-16T06:25:12.959Z,10.57
2018-09-16T06:26:12.940Z,10.57
2018-09-16T06:27:12.940Z,10.69
2018-09-16T06:28:12.948Z,10.69
2018-09-16T06:29:12.938Z,10.74
2018-09-16T06:30:12.944Z,10.76
2018-09-16T06:31:12.951Z,10.78
2018-09-16T06:32:12.934Z,10.99
2018-09-16T06:33:12.928Z,10.99
2018-09-16T06:34:12.941Z,11.02
2018-09-16T06:35:12.938Z,11.11
2018-09-16T06:36:13.125Z,11.08
2018-09-16T06:37:12.940Z,11.19
2018-09-16T06:38:12.924Z,11.23
2018-09-16T06:39:13.126Z,11.36
2018-09-16T06:40:12.934Z,11.36
2018-09-16T06:41:12.923Z,11.41
2018-09-16T06:42:13.138Z,11.51
2018-09-16T06:43:12.930Z,11.54
2018-09-16T06:44:12.914Z,11.59
2018-09-16T06:45:12.932Z,11.62
2018-09-16T06:46:12.921Z,11.68
2018-09-16T06:47:12.936Z,11.69
2018-09-16T06:48:12.927Z,11.77
2018-09-16T06:49:13.114Z,11.80
2018-09-16T06:50:12.921Z,11.83
2018-09-16T06:51:12.907Z,11.94
2018-09-16T06:52:13.112Z,11.86
2018-09-16T06:53:12.919Z,11.91
2018-09-16T06:54:12.914Z,12.04
2018-09-16T06:55:12.924Z,12.09
2018-09-16T06:56:12.903Z,12.04
2018-09-16T06:57:12.911Z,12.15
2018-09-16T06:58:12.940Z,12.17
2018-09-16T06:59:12.915Z,12.20
2018-09-16T07:00:13.110Z,12.22
2018-09-16T07:01:12.909Z,12.24
2018-09-16T07:02:12.906Z,12.37
2018-09-16T07:03:13.103Z,12.37
2018-09-16T07:04:12.892Z,12.50
2018-09-16T07:05:12.909Z,12.61
2018-09-16T07:06:12.915Z,12.61
2018-09-16T07:07:12.900Z,12.68
2018-09-16T07:08:12.944Z,12.70
2018-09-16T07:09:12.903Z,12.70
2018-09-16T07:10:12.920Z,12.78
2018-09-16T07:11:13.111Z,12.78
2018-09-16T07:12:12.913Z,12.76
2018-09-16T07:13:12.888Z,12.79
2018-09-16T07:14:12.887Z,12.94
2018-09-16T07:15:13.100Z,13.01
2018-09-16T07:16:12.885Z,12.95
2018-09-16T07:17:12.883Z,13.01
2018-09-16T07:18:13.085Z,13.12
2018-09-16T07:19:12.899Z,13.11
2018-09-16T07:20:12.902Z,13.19
2018-09-16T07:21:12.887Z,13.35
2018-09-16T07:22:12.882Z,13.28
2018-09-16T07:23:12.899Z,13.39
2018-09-16T07:24:12.883Z,13.49
2018-09-16T07:25:12.878Z,13.53
2018-09-16T07:26:12.912Z,13.52
2018-09-16T07:27:12.933Z,13.68
2018-09-16T07:28:12.891Z,13.63
2018-09-16T07:29:12.880Z,13.78
2018-09-16T07:30:12.875Z,13.78
2018-09-16T07:31:12.894Z,13.96
2018-09-16T07:32:12.878Z,13.95
2018-09-16T07:33:12.876Z,14.05
2018-09-16T07:34:13.015Z,14.17
2018-09-16T07:35:12.886Z,14.48
2018-09-16T07:36:13.086Z,14.65
2018-09-16T07:37:13.089Z,14.78
2018-09-16T07:38:12.877Z,14.97
2018-09-16T07:39:12.900Z,14.96
2018-09-16T07:40:12.882Z,15.09
2018-09-16T07:41:12.882Z,15.24
2018-09-16T07:42:12.871Z,15.40
2018-09-16T07:43:12.872Z,15.42
2018-09-16T07:44:12.873Z,15.44
2018-09-16T07:45:12.888Z,15.61
2018-09-16T07:46:12.874Z,15.65
2018-09-16T07:47:12.881Z,15.83
2018-09-16T07:48:12.886Z,15.90
2018-09-16T07:49:12.872Z,16.13
2018-09-16T07:50:12.891Z,16.31
2018-09-16T07:51:12.875Z,16.49
2018-09-16T07:52:12.873Z,16.58
2018-09-16T07:53:12.931Z,16.56
2018-09-16T07:54:12.912Z,16.64
2018-09-16T07:55:12.921Z,16.60
2018-09-16T07:56:12.892Z,16.57
2018-09-16T07:57:12.891Z,16.60
2018-09-16T07:58:12.876Z,16.58
2018-09-16T07:59:12.953Z,16.71
2018-09-16T08:00:12.879Z,16.76
2018-09-16T08:01:12.874Z,16.81
2018-09-16T08:02:12.903Z,16.93
2018-09-16T08:03:13.094Z,17.02
2018-09-16T08:04:12.901Z,17.30
2018-09-16T08:05:12.888Z,17.49
2018-09-16T08:06:13.062Z,17.76
2018-09-16T08:07:12.887Z,17.94
2018-09-16T08:08:12.877Z,18.23
2018-09-16T08:09:12.877Z,18.44
2018-09-16T08:10:12.880Z,18.65
2018-09-16T08:11:12.878Z,18.75
2018-09-16T08:12:12.882Z,18.92
2018-09-16T08:13:12.879Z,18.84
2018-09-16T08:14:12.879Z,18.73
2018-09-16T08:15:13.099Z,18.65
2018-09-16T08:16:13.086Z,18.55
2018-09-16T08:17:12.883Z,18.37
2018-09-16T08:18:12.892Z,18.40
2018-09-16T08:19:12.906Z,18.10
2018-09-16T08:20:12.885Z,18.13
2018-09-16T08:21:12.904Z,18.04
2018-09-16T08:22:12.886Z,18.04
2018-09-16T08:23:12.885Z,18.08
2018-09-16T08:24:12.890Z,18.10
2018-09-16T08:25:12.902Z,18.23
2018-09-16T08:26:12.899Z,18.35
2018-09-16T08:27:13.097Z,18.28
2018-09-16T08:28:12.890Z,18.37
2018-09-16T08:29:12.897Z,18.41
2018-09-16T08:30:12.901Z,18.41
2018-09-16T08:31:12.902Z,18.43
2018-09-16T08:32:12.905Z,18.45
2018-09-16T08:33:12.896Z,18.53
2018-09-16T08:34:12.900Z,18.53
2018-09-16T08:35:12.907Z,18.74
2018-09-16T08:36:12.921Z,18.78
2018-09-16T08:37:12.918Z,18.74
2018-09-16T08:38:12.898Z,18.77
2018-09-16T08:39:12.902Z,18.78
2018-09-16T08:40:12.911Z,18.83
2018-09-16T08:41:12.901Z,18.84
2018-09-16T08:42:12.908Z,18.74
2018-09-16T08:43:12.938Z,18.81
2018-09-16T08:44:12.908Z,18.75
2018-09-16T08:45:12.919Z,18.66
2018-09-16T08:46:12.922Z,18.62
2018-09-16T08:47:12.909Z,18.65
2018-09-16T08:48:12.910Z,18.73
2018-09-16T08:49:12.924Z,18.63
2018-09-16T08:50:12.911Z,18.73
2018-09-16T08:51:12.924Z,18.73
2018-09-16T08:52:12.919Z,18.81
2018-09-16T08:53:12.917Z,18.83
2018-09-16T08:54:12.924Z,18.78
2018-09-16T08:55:12.916Z,18.81
2018-09-16T08:56:12.918Z,18.71
2018-09-16T08:57:12.931Z,18.63
2018-09-16T08:58:13.042Z,18.60
2018-09-16T08:59:12.920Z,18.50
2018-09-16T09:00:12.933Z,18.35
2018-09-16T09:01:12.929Z,18.35
2018-09-16T09:02:12.944Z,18.33
2018-09-16T09:03:12.941Z,18.44
2018-09-16T09:04:13.055Z,18.47
2018-09-16T09:05:12.941Z,18.50
2018-09-16T09:06:12.929Z,18.49
2018-09-16T09:07:13.161Z,18.59
2018-09-16T09:08:12.943Z,18.66
2018-09-16T09:09:13.149Z,18.71
2018-09-16T09:10:12.935Z,18.77
2018-09-16T09:11:12.946Z,18.92
2018-09-16T09:12:12.960Z,18.95
2018-09-16T09:13:13.170Z,18.96
2018-09-16T09:14:12.947Z,19.09
2018-09-16T09:15:12.941Z,19.11
2018-09-16T09:16:12.958Z,19.22
2018-09-16T09:17:12.962Z,19.24
2018-09-16T09:18:12.974Z,19.36
2018-09-16T09:19:12.957Z,19.37
2018-09-16T09:20:12.979Z,19.54
2018-09-16T09:21:13.161Z,19.48
2018-09-16T09:22:12.963Z,19.47
2018-09-16T09:23:12.983Z,19.48
2018-09-16T09:24:13.169Z,19.48
2018-09-16T09:25:12.955Z,19.55
2018-09-16T09:26:12.960Z,19.63
2018-09-16T09:27:12.961Z,19.52
2018-09-16T09:28:13.171Z,19.62
2018-09-16T09:29:12.977Z,19.64
2018-09-16T09:30:12.970Z,19.62
2018-09-16T09:31:13.171Z,19.73
2018-09-16T09:32:12.962Z,19.81
2018-09-16T09:33:13.169Z,19.89
2018-09-16T09:34:12.977Z,19.89
2018-09-16T09:35:12.966Z,19.94
2018-09-16T09:36:12.980Z,19.94
2018-09-16T09:37:12.981Z,19.85
2018-09-16T09:38:12.996Z,19.94
2018-09-16T09:39:12.974Z,19.86
2018-09-16T09:40:13.001Z,19.94
2018-09-16T09:41:12.980Z,20.02
2018-09-16T09:42:13.007Z,19.94
2018-09-16T09:43:12.980Z,19.95
2018-09-16T09:44:13.020Z,19.88
2018-09-16T09:45:12.992Z,19.92
2018-09-16T09:46:12.996Z,19.85
2018-09-16T09:47:13.000Z,19.77
2018-09-16T09:48:13.189Z,19.85
2018-09-16T09:49:12.991Z,19.84
2018-09-16T09:50:12.992Z,19.84
2018-09-16T09:51:13.008Z,19.94
2018-09-16T09:52:12.996Z,20.03
2018-09-16T09:53:12.999Z,20.16
2018-09-16T09:54:12.995Z,20.19
2018-09-16T09:55:13.001Z,20.19
2018-09-16T09:56:13.002Z,20.10
2018-09-16T09:57:13.018Z,20.04
2018-09-16T09:58:13.006Z,20.11
2018-09-16T09:59:13.119Z,20.16
2018-09-16T10:00:13.006Z,20.10
2018-09-16T10:01:13.042Z,20.24
2018-09-16T10:02:13.223Z,20.28
2018-09-16T10:03:13.018Z,20.31
2018-09-16T10:04:13.031Z,20.37
2018-09-16T10:05:13.232Z,20.47
2018-09-16T10:06:13.088Z,20.36
2018-09-16T10:07:13.040Z,20.44
2018-09-16T10:08:13.235Z,20.29
2018-09-16T10:09:13.037Z,20.16
2018-09-16T10:10:13.030Z,20.22
2018-09-16T10:11:13.024Z,20.19
2018-09-16T10:12:13.030Z,20.09
2018-09-16T10:13:13.031Z,20.21
2018-09-16T10:14:13.078Z,20.26
2018-09-16T10:15:13.050Z,20.43
2018-09-16T10:16:13.050Z,20.48
2018-09-16T10:17:13.263Z,20.52
2018-09-16T10:18:13.039Z,20.50
2018-09-16T10:19:13.257Z,20.55
2018-09-16T10:20:13.062Z,20.51
2018-09-16T10:21:13.056Z,20.44
2018-09-16T10:22:13.046Z,20.44
2018-09-16T10:23:13.060Z,20.37
2018-09-16T10:24:13.065Z,20.24
2018-09-16T10:25:13.283Z,20.29
2018-09-16T10:26:13.053Z,20.36
2018-09-16T10:27:13.270Z,20.32
2018-09-16T10:28:13.089Z,20.11
2018-09-16T10:29:13.276Z,20.11
2018-09-16T10:30:13.073Z,20.00
2018-09-16T10:31:13.065Z,20.09
2018-09-16T10:32:13.079Z,20.13
2018-09-16T10:33:13.070Z,20.13
2018-09-16T10:34:13.072Z,20.24
2018-09-16T10:35:13.274Z,20.25
2018-09-16T10:36:13.077Z,20.37
2018-09-16T10:37:13.075Z,20.31
2018-09-16T10:38:13.089Z,20.28
2018-09-16T10:39:13.080Z,20.31
2018-09-16T10:40:13.081Z,20.31
2018-09-16T10:41:13.087Z,20.34
2018-09-16T10:42:13.088Z,20.29
2018-09-16T10:43:13.100Z,20.18
2018-09-16T10:44:13.102Z,20.26
2018-09-16T10:45:13.108Z,20.21
2018-09-16T10:46:13.122Z,20.22
2018-09-16T10:47:13.102Z,20.09
2018-09-16T10:48:13.154Z,20.09
2018-09-16T10:49:13.104Z,20.24
2018-09-16T10:50:13.103Z,20.21
2018-09-16T10:51:13.104Z,20.31
2018-09-16T10:52:13.106Z,20.39
2018-09-16T10:53:13.116Z,20.43
2018-09-16T10:54:13.127Z,20.52
2018-09-16T10:55:13.124Z,20.72
2018-09-16T10:56:13.144Z,20.81
2018-09-16T10:57:13.123Z,20.87
2018-09-16T10:58:13.121Z,20.90
2018-09-16T10:59:13.323Z,21.06
2018-09-16T11:00:13.138Z,21.14
2018-09-16T11:01:13.144Z,21.20
2018-09-16T11:02:13.128Z,21.25
2018-09-16T11:03:13.132Z,21.17
2018-09-16T11:04:13.163Z,21.14
2018-09-16T11:05:13.161Z,20.97
2018-09-16T11:06:13.151Z,20.82
2018-09-16T11:07:13.142Z,20.81
2018-09-16T11:08:13.195Z,20.67
2018-09-16T11:09:13.160Z,20.67
2018-09-16T11:10:13.350Z,20.58
2018-09-16T11:11:13.161Z,20.51
2018-09-16T11:12:13.184Z,20.40
2018-09-16T11:13:13.166Z,20.31
2018-09-16T11:14:13.168Z,20.25
2018-09-16T11:15:13.173Z,20.07
2018-09-16T11:16:13.366Z,20.09
2018-09-16T11:17:13.163Z,20.03
2018-09-16T11:18:13.169Z,19.99
2018-09-16T11:19:13.169Z,19.86
2018-09-16T11:20:13.171Z,19.77
2018-09-16T11:21:13.184Z,19.88
2018-09-16T11:22:13.257Z,19.85
2018-09-16T11:23:13.184Z,19.88
2018-09-16T11:24:13.183Z,20.00
2018-09-16T11:25:13.195Z,20.10
2018-09-16T11:26:13.185Z,20.26
2018-09-16T11:27:13.199Z,20.41
2018-09-16T11:28:13.191Z,20.56
2018-09-16T11:29:13.192Z,20.56
2018-09-16T11:30:13.342Z,20.56
2018-09-16T11:31:13.230Z,20.52
2018-09-16T11:32:13.209Z,20.51
2018-09-16T11:33:13.414Z,20.41
2018-09-16T11:34:13.202Z,20.40
2018-09-16T11:35:13.216Z,20.32
2018-09-16T11:36:13.207Z,20.34
2018-09-16T11:37:13.210Z,20.29
2018-09-16T11:38:13.213Z,20.14
2018-09-16T11:39:13.417Z,20.09
2018-09-16T11:40:13.245Z,20.09
2018-09-16T11:41:13.217Z,19.89
2018-09-16T11:42:13.222Z,19.88
2018-09-16T11:43:13.222Z,19.79
2018-09-16T11:44:13.443Z,19.77
2018-09-16T11:45:13.255Z,19.73
2018-09-16T11:46:13.243Z,19.76
2018-09-16T11:47:13.233Z,19.77
2018-09-16T11:48:13.247Z,19.79
2018-09-16T11:49:13.293Z,19.73
2018-09-16T11:50:13.246Z,19.74
2018-09-16T11:51:13.242Z,19.81
2018-09-16T11:52:13.248Z,20.02
2018-09-16T11:53:13.253Z,20.11
2018-09-16T11:54:13.263Z,20.10
2018-09-16T11:55:13.267Z,20.19
2018-09-16T11:56:13.256Z,20.18
2018-09-16T11:57:13.260Z,20.10
2018-09-16T11:58:13.262Z,20.00
2018-09-16T11:59:13.265Z,19.89
2018-09-16T12:00:13.280Z,19.81
2018-09-16T12:01:13.280Z,19.76
2018-09-16T12:02:13.296Z,19.77
2018-09-16T12:03:13.273Z,19.74
2018-09-16T12:04:13.324Z,19.82
2018-09-16T12:05:13.328Z,19.74
2018-09-16T12:06:13.280Z,19.85
2018-09-16T12:07:13.299Z,19.94
2018-09-16T12:08:13.295Z,20.03
2018-09-16T12:09:13.299Z,19.82
2018-09-16T12:10:13.288Z,19.84
2018-09-16T12:11:13.290Z,19.85
2018-09-16T12:12:13.305Z,19.91
2018-09-16T12:13:13.311Z,19.89
2018-09-16T12:14:13.325Z,20.00
2018-09-16T12:15:13.300Z,20.09
2018-09-16T12:16:13.576Z,20.22
2018-09-16T12:17:13.515Z,20.21
2018-09-16T12:18:13.307Z,20.48
2018-09-16T12:19:13.525Z,20.40
2018-09-16T12:20:13.338Z,20.43
2018-09-16T12:21:13.324Z,20.31
2018-09-16T12:22:13.336Z,20.28
2018-09-16T12:23:13.330Z,20.18
2018-09-16T12:24:13.548Z,20.19
2018-09-16T12:25:13.332Z,20.25
2018-09-16T12:26:13.340Z,20.25
2018-09-16T12:27:13.345Z,20.21
2018-09-16T12:28:13.330Z,20.36
2018-09-16T12:29:13.342Z,20.43
2018-09-16T12:30:13.366Z,20.51
2018-09-16T12:31:13.547Z,20.70
2018-09-16T12:32:13.540Z,20.77
2018-09-16T12:33:13.544Z,20.88
2018-09-16T12:34:13.356Z,20.93
2018-09-16T12:35:13.347Z,20.90
2018-09-16T12:36:13.374Z,20.95
2018-09-16T12:37:13.367Z,20.84
2018-09-16T12:38:13.365Z,20.87
2018-09-16T12:39:13.356Z,20.80
2018-09-16T12:40:13.562Z,20.78
2018-09-16T12:41:13.375Z,20.78
2018-09-16T12:42:13.363Z,20.74
2018-09-16T12:43:13.366Z,20.69
2018-09-16T12:44:13.382Z,20.75
2018-09-16T12:45:13.398Z,20.72
2018-09-16T12:46:13.371Z,20.72
2018-09-16T12:47:13.375Z,20.74
2018-09-16T12:48:13.377Z,20.63
2018-09-16T12:49:13.394Z,20.65
2018-09-16T12:50:13.394Z,20.52
2018-09-16T12:51:13.399Z,20.41
2018-09-16T12:52:13.404Z,20.41
2018-09-16T12:53:13.608Z,20.56
2018-09-16T12:54:13.407Z,20.48
2018-09-16T12:55:13.598Z,20.55
2018-09-16T12:56:13.602Z,20.55
2018-09-16T12:57:13.406Z,20.62
2018-09-16T12:58:13.416Z,20.66
2018-09-16T12:59:13.420Z,20.70
2018-09-16T13:00:13.632Z,20.81